createdAt,value
2018-05-23T00:00:58.776Z,36.30
2018-05-23T00:03:27.910Z,41.97
2018-05-23T00:05:56.105Z,42.87
2018-05-23T00:08:24.973Z,40.60
2018-05-23T00:10:53.316Z,41.60
2018-05-23T00:13:22.105Z,44.20
2018-05-23T00:15:50.289Z,45.23
2018-05-23T00:18:19.138Z,49.80
2018-05-23T00:20:47.469Z,38.57
2018-05-23T00:23:17.633Z,39.53
2018-05-23T00:25:45.943Z,39.17
2018-05-23T00:28:14.033Z,40.97
2018-05-23T00:30:43.155Z,42.67
2018-05-23T00:33:13.341Z,42.90
2018-05-23T00:35:42.320Z,41.50
2018-05-23T00:38:10.596Z,37.50
2018-05-23T00:40:39.448Z,39.17
2018-05-23T00:43:07.866Z,40.57
2018-05-23T00:45:36.109Z,41.77
2018-05-23T00:48:04.923Z,41.47
2018-05-23T00:50:33.805Z,43.27
2018-05-23T00:53:01.916Z,44.40
2018-05-23T00:55:35.344Z,46.37
2018-05-23T00:58:03.455Z,48.30
2018-05-23T01:00:31.553Z,51.00
2018-05-23T01:02:59.672Z,52.80
2018-05-23T01:05:27.780Z,49.87
2018-05-23T01:07:55.915Z,49.30
2018-05-23T01:10:24.480Z,50.00
2018-05-23T01:12:53.463Z,49.50
2018-05-23T01:15:21.557Z,50.17
2018-05-23T01:17:49.635Z,50.43
2018-05-23T01:20:18.479Z,50.97
2018-05-23T01:22:46.627Z,44.83
2018-05-23T01:25:15.020Z,44.30
2018-05-23T01:27:43.273Z,45.40
2018-05-23T01:30:11.368Z,46.43
2018-05-23T01:32:40.148Z,48.87
2018-05-23T01:35:09.078Z,52.20
2018-05-23T01:37:37.172Z,48.67
2018-05-23T01:40:06.291Z,51.47
2018-05-23T01:42:35.160Z,48.60
2018-05-23T01:45:03.264Z,49.70
2018-05-23T01:47:31.759Z,45.10
2018-05-23T01:49:59.956Z,44.17
2018-05-23T01:52:32.366Z,44.73
2018-05-23T01:55:00.662Z,48.20
2018-05-23T01:57:28.757Z,47.30
2018-05-23T01:59:57.701Z,49.80
2018-05-23T02:02:26.112Z,48.07
2018-05-23T02:04:54.429Z,47.30
2018-05-23T02:07:24.698Z,48.93
2018-05-23T02:09:54.060Z,49.03
2018-05-23T02:12:22.280Z,49.50
2018-05-23T02:14:51.178Z,49.47
2018-05-23T02:17:19.279Z,49.90
2018-05-23T02:19:47.789Z,50.70
2018-05-23T02:22:15.896Z,50.47
2018-05-23T02:24:44.090Z,52.23
2018-05-23T02:27:12.192Z,47.83
2018-05-23T02:29:41.048Z,46.57
2018-05-23T02:32:09.334Z,48.17
2018-05-23T02:34:37.469Z,51.10
2018-05-23T02:37:05.953Z,50.50
2018-05-23T02:39:34.264Z,51.93
2018-05-23T02:42:02.473Z,51.47
2018-05-23T02:44:30.930Z,49.37
2018-05-23T02:46:59.177Z,51.53
2018-05-23T02:49:28.961Z,47.80
2018-05-23T02:51:57.077Z,48.63
2018-05-23T02:54:25.875Z,45.73
2018-05-23T02:56:53.967Z,48.10
2018-05-23T02:59:23.118Z,48.93
2018-05-23T03:01:52.292Z,48.83
2018-05-23T03:04:20.369Z,49.40
2018-05-23T03:06:49.369Z,51.23
2018-05-23T03:09:18.305Z,49.40
2018-05-23T03:11:48.099Z,52.20
2018-05-23T03:14:16.379Z,52.10
2018-05-23T03:16:45.615Z,48.90
2018-05-23T03:19:14.467Z,50.87
2018-05-23T03:21:42.584Z,52.80
2018-05-23T03:24:10.816Z,52.53
2018-05-23T03:26:38.896Z,53.07
2018-05-23T03:29:08.172Z,52.90
2018-05-23T03:31:36.369Z,56.23
2018-05-23T03:34:04.688Z,55.87
2018-05-23T03:36:32.975Z,56.13
2018-05-23T03:39:01.052Z,54.17
2018-05-23T03:41:29.180Z,55.03
2018-05-23T03:43:57.340Z,53.60
2018-05-23T03:46:25.441Z,53.43
2018-05-23T03:48:54.392Z,50.97
2018-05-23T03:51:26.168Z,52.03
2018-05-23T03:53:54.257Z,56.50
2018-05-23T03:56:24.541Z,55.13
2018-05-23T03:58:54.588Z,53.77
2018-05-23T04:01:40.681Z,53.77
2018-05-23T04:04:27.535Z,56.30
2018-05-23T04:10:00.968Z,56.50
2018-05-23T04:12:29.055Z,52.37
2018-05-23T04:14:57.448Z,49.43
2018-05-23T04:17:25.740Z,48.30
2018-05-23T04:19:54.407Z,48.30
2018-05-23T04:22:23.680Z,48.27
2018-05-23T04:24:52.654Z,46.70
2018-05-23T04:27:21.471Z,46.63
2018-05-23T04:29:49.628Z,44.47
2018-05-23T04:32:17.713Z,44.27
2018-05-23T04:34:46.147Z,42.73
2018-05-23T04:37:14.224Z,44.37
2018-05-23T04:39:43.115Z,47.93
2018-05-23T04:42:12.037Z,46.07
2018-05-23T04:44:40.195Z,45.50
2018-05-23T04:47:08.653Z,45.77
2018-05-23T04:49:37.757Z,47.40
2018-05-23T04:52:06.019Z,46.83
2018-05-23T04:54:35.120Z,48.27
2018-05-23T04:57:03.420Z,48.90
2018-05-23T04:59:31.664Z,45.80
2018-05-23T05:02:00.520Z,49.27
2018-05-23T05:04:28.612Z,50.23
2018-05-23T05:06:58.788Z,48.80
2018-05-23T05:09:27.144Z,49.00
2018-05-23T05:11:55.637Z,48.27
2018-05-23T05:14:23.713Z,49.87
2018-05-23T05:16:51.967Z,50.80
2018-05-23T05:19:21.081Z,49.97
2018-05-23T05:21:49.372Z,50.27
2018-05-23T05:24:17.724Z,49.17
2018-05-23T05:26:46.926Z,51.70
2018-05-23T05:29:15.007Z,48.27
2018-05-23T05:31:43.303Z,50.10
2018-05-23T05:34:14.518Z,49.17
2018-05-23T05:36:42.613Z,50.83
2018-05-23T05:39:10.769Z,51.57
2018-05-23T05:41:40.056Z,50.40
2018-05-23T05:44:08.666Z,50.80
2018-05-23T05:46:36.681Z,49.90
2018-05-23T05:49:08.420Z,48.87
2018-05-23T05:51:37.316Z,49.87
2018-05-23T05:54:05.433Z,50.57
2018-05-23T05:56:33.774Z,49.43
2018-05-23T05:59:02.093Z,51.70
2018-05-23T06:01:30.181Z,49.67
2018-05-23T06:03:58.470Z,51.80
2018-05-23T06:06:27.760Z,50.47
2018-05-23T06:08:56.078Z,49.27
2018-05-23T06:11:24.441Z,49.87
2018-05-23T06:13:53.407Z,49.20
2018-05-23T06:16:21.956Z,45.90
2018-05-23T06:18:50.163Z,47.77
2018-05-23T06:21:18.528Z,44.57
2018-05-23T06:23:46.725Z,45.63
2018-05-23T06:26:14.822Z,45.87
2018-05-23T06:28:44.009Z,46.20
2018-05-23T06:31:12.312Z,45.30
2018-05-23T06:33:41.086Z,46.70
2018-05-23T06:36:09.173Z,41.90
2018-05-23T06:38:37.476Z,43.43
2018-05-23T06:41:07.240Z,43.80
2018-05-23T06:43:35.493Z,40.90
2018-05-23T06:46:03.871Z,42.17
2018-05-23T06:48:32.927Z,42.10
2018-05-23T06:51:01.017Z,42.70
2018-05-23T06:53:29.960Z,41.83
2018-05-23T06:55:58.094Z,43.03
2018-05-23T06:58:26.215Z,41.87
2018-05-23T07:00:54.457Z,40.70
2018-05-23T07:03:22.831Z,38.53
2018-05-23T07:05:51.356Z,40.60
2018-05-23T07:08:19.352Z,37.40
2018-05-23T07:10:50.596Z,36.47
2018-05-23T07:13:19.340Z,27.43
2018-05-23T07:15:47.798Z,23.43
2018-05-23T07:18:15.987Z,15.80
2018-05-23T07:20:44.835Z,13.07
2018-05-23T07:23:14.628Z,13.50
2018-05-23T07:25:43.019Z,12.40
2018-05-23T07:28:11.248Z,13.97
2018-05-23T07:30:39.352Z,13.67
2018-05-23T07:33:07.475Z,13.90
2018-05-23T07:35:37.159Z,13.43
2018-05-23T07:38:05.395Z,14.90
2018-05-23T07:40:33.605Z,13.80
2018-05-23T07:43:02.000Z,13.80
2018-05-23T07:45:31.109Z,14.00
2018-05-23T07:47:59.206Z,14.90
2018-05-23T07:50:27.291Z,12.60
2018-05-23T07:52:55.663Z,14.30
2018-05-23T07:55:24.703Z,14.67
2018-05-23T07:57:53.140Z,14.00
2018-05-23T08:00:21.420Z,13.40
2018-05-23T08:02:49.507Z,14.07
2018-05-23T08:05:18.327Z,14.20
2018-05-23T08:07:46.457Z,14.00
2018-05-23T08:10:15.148Z,14.13
2018-05-23T08:12:45.344Z,14.90
2018-05-23T08:15:14.473Z,12.93
2018-05-23T08:17:42.619Z,13.03
2018-05-23T08:20:11.622Z,13.17
2018-05-23T08:22:39.912Z,13.20
2018-05-23T08:25:08.002Z,14.37
2018-05-23T08:27:36.355Z,13.70
2018-05-23T08:30:04.484Z,13.47
2018-05-23T08:32:33.372Z,14.17
2018-05-23T08:35:01.607Z,13.57
2018-05-23T08:37:29.759Z,14.10
2018-05-23T08:39:58.036Z,14.07
2018-05-23T08:42:26.140Z,14.03
2018-05-23T08:44:55.020Z,12.77
2018-05-23T08:47:23.112Z,10.20
2018-05-23T08:49:51.217Z,9.40
2018-05-23T08:52:19.310Z,8.70
2018-05-23T08:54:47.655Z,9.00
2018-05-23T08:57:16.495Z,9.93
2018-05-23T08:59:44.750Z,10.10
2018-05-23T09:02:12.942Z,9.43
2018-05-23T09:04:43.443Z,9.70
2018-05-23T09:07:11.661Z,8.77
2018-05-23T09:09:39.933Z,9.57
2018-05-23T09:12:08.283Z,10.00
2018-05-23T09:14:36.368Z,9.97
2018-05-23T09:17:04.463Z,10.70
2018-05-23T09:19:32.672Z,11.70
2018-05-23T09:22:00.875Z,8.80
2018-05-23T09:24:29.089Z,9.33
2018-05-23T09:26:57.847Z,9.33
2018-05-23T09:29:25.946Z,10.43
2018-05-23T09:31:54.107Z,8.97
2018-05-23T09:34:22.400Z,8.00
2018-05-23T09:36:50.585Z,6.90
2018-05-23T09:39:19.044Z,7.63
2018-05-23T09:41:47.124Z,8.50
2018-05-23T09:44:15.321Z,7.60
2018-05-23T09:46:43.397Z,10.97
2018-05-23T09:49:12.268Z,8.17
2018-05-23T09:51:40.379Z,10.03
2018-05-23T09:54:08.713Z,8.40
2018-05-23T09:56:36.784Z,10.20
2018-05-23T09:59:05.643Z,6.13
2018-05-23T10:01:33.747Z,5.13
2018-05-23T10:04:01.819Z,4.43
2018-05-23T10:06:30.170Z,7.20
2018-05-23T10:08:58.291Z,7.27
2018-05-23T10:11:26.672Z,7.33
2018-05-23T10:13:54.860Z,6.20
2018-05-23T10:16:24.596Z,6.17
2018-05-23T10:18:52.762Z,6.43
2018-05-23T10:21:20.982Z,6.03
2018-05-23T10:23:49.103Z,6.30
2018-05-23T10:26:17.386Z,5.70
2018-05-23T10:28:45.614Z,5.20
2018-05-23T10:31:14.052Z,4.13
2018-05-23T10:33:42.310Z,4.60
2018-05-23T10:36:10.713Z,4.20
2018-05-23T10:38:38.795Z,4.40
2018-05-23T10:41:07.861Z,6.10
2018-05-23T10:43:36.106Z,6.73
2018-05-23T10:46:04.339Z,4.03
2018-05-23T10:48:32.451Z,4.80
2018-05-23T10:51:00.549Z,4.17
2018-05-23T10:53:28.797Z,3.77
2018-05-23T10:55:56.971Z,3.50
2018-05-23T10:58:25.096Z,4.20
2018-05-23T11:00:53.172Z,3.33
2018-05-23T11:03:21.592Z,3.33
2018-05-23T11:05:49.917Z,3.40
2018-05-23T11:08:18.972Z,3.30
2018-05-23T11:10:48.002Z,3.67
2018-05-23T11:13:16.461Z,7.10
2018-05-23T11:15:45.509Z,4.27
2018-05-23T11:18:14.531Z,4.40
2018-05-23T11:20:42.809Z,4.17
2018-05-23T11:23:10.884Z,3.90
2018-05-23T11:25:39.164Z,3.77
2018-05-23T11:28:07.246Z,3.63
2018-05-23T11:30:35.593Z,3.63
2018-05-23T11:33:03.907Z,3.97
2018-05-23T11:35:32.171Z,4.03
2018-05-23T11:38:01.175Z,4.80
2018-05-23T11:40:29.259Z,4.77
2018-05-23T11:42:57.672Z,4.70
2018-05-23T11:45:25.841Z,5.30
2018-05-23T11:47:54.180Z,3.70
2018-05-23T11:50:25.654Z,4.40
2018-05-23T11:52:54.000Z,4.77
2018-05-23T11:55:22.228Z,4.57
2018-05-23T11:57:50.643Z,5.20
2018-05-23T12:00:19.513Z,5.17
2018-05-23T12:02:50.167Z,5.30
2018-05-23T12:05:19.287Z,7.43
2018-05-23T12:07:48.213Z,5.80
2018-05-23T12:10:17.369Z,5.40
2018-05-23T12:12:45.852Z,5.80
2018-05-23T12:15:14.899Z,5.30
2018-05-23T12:17:46.717Z,6.10
2018-05-23T12:20:14.908Z,16.47
2018-05-23T12:22:43.104Z,4.67
2018-05-23T12:25:11.548Z,11.17
2018-05-23T12:27:39.918Z,5.40
2018-05-23T12:30:08.772Z,7.23
2018-05-23T12:32:37.216Z,5.37
2018-05-23T12:35:06.474Z,6.00
2018-05-23T12:37:35.282Z,5.90
2018-05-23T12:40:04.584Z,5.00
2018-05-23T12:42:33.336Z,4.97
2018-05-23T12:45:01.583Z,6.50
2018-05-23T12:47:29.671Z,6.20
2018-05-23T12:49:57.748Z,6.60
2018-05-23T12:52:25.832Z,7.93
2018-05-23T12:54:54.684Z,7.60
2018-05-23T12:57:23.039Z,7.20
2018-05-23T12:59:51.139Z,7.53
2018-05-23T13:02:20.041Z,6.60
2018-05-23T13:04:48.164Z,5.53
2018-05-23T13:07:17.184Z,5.50
2018-05-23T13:09:45.862Z,5.50
2018-05-23T13:12:14.692Z,6.60
2018-05-23T13:14:43.020Z,5.93
2018-05-23T13:17:11.740Z,5.40
2018-05-23T13:19:40.144Z,5.97
2018-05-23T13:22:08.400Z,6.10
2018-05-23T13:24:37.664Z,5.70
2018-05-23T13:27:05.833Z,5.73
2018-05-23T13:29:34.040Z,5.50
2018-05-23T13:32:02.460Z,6.30
2018-05-23T13:34:34.085Z,5.43
2018-05-23T13:37:02.430Z,5.90
2018-05-23T13:39:31.430Z,5.50
2018-05-23T13:41:59.741Z,6.07
2018-05-23T13:44:28.231Z,5.90
2018-05-23T13:46:56.574Z,6.30
2018-05-23T13:49:25.489Z,6.63
2018-05-23T13:51:55.249Z,6.10
2018-05-23T13:54:23.650Z,6.30
2018-05-23T13:56:52.460Z,6.73
2018-05-23T13:59:20.579Z,5.90
2018-05-23T14:01:49.496Z,5.50
2018-05-23T14:04:17.700Z,5.77
2018-05-23T14:06:45.882Z,7.23
2018-05-23T14:09:14.155Z,7.10
2018-05-23T14:11:42.375Z,7.13
2018-05-23T14:14:12.182Z,6.70
2018-05-23T14:16:40.359Z,11.33
2018-05-23T14:19:09.581Z,7.60
2018-05-23T14:21:38.884Z,7.10
2018-05-23T14:24:08.167Z,6.97
2018-05-23T14:26:36.479Z,7.60
2018-05-23T14:29:04.873Z,7.43
2018-05-23T14:31:33.929Z,6.43
2018-05-23T14:34:02.229Z,6.93
2018-05-23T14:36:31.545Z,7.13
2018-05-23T14:38:59.756Z,6.50
2018-05-23T14:41:27.933Z,5.83
2018-05-23T14:43:56.476Z,9.70
2018-05-23T14:46:25.352Z,17.10
2018-05-23T14:48:53.783Z,10.60
2018-05-23T14:51:22.009Z,10.10
2018-05-23T14:53:50.117Z,7.87
2018-05-23T14:56:18.614Z,9.10
2018-05-23T14:58:46.827Z,8.50
2018-05-23T15:01:15.893Z,8.90
2018-05-23T15:03:50.039Z,8.20
2018-05-23T15:06:20.120Z,15.40
2018-05-23T15:08:48.208Z,12.37
2018-05-23T15:11:17.605Z,8.67
2018-05-23T15:13:48.550Z,10.03
2018-05-23T15:16:18.356Z,8.23
2018-05-23T15:18:46.609Z,8.10
2018-05-23T15:21:14.972Z,7.97
2018-05-23T15:23:43.077Z,8.73
2018-05-23T15:26:11.956Z,7.90
2018-05-23T15:28:40.309Z,8.83
2018-05-23T15:31:08.427Z,7.57
2018-05-23T15:33:36.957Z,8.47
2018-05-23T15:36:06.080Z,8.47
2018-05-23T15:38:35.215Z,7.47
2018-05-23T15:41:03.318Z,12.10
2018-05-23T15:43:32.531Z,18.07
2018-05-23T15:46:02.679Z,24.40
2018-05-23T15:48:32.570Z,9.60
2018-05-23T15:51:00.829Z,25.30
2018-05-23T15:53:29.124Z,10.60
2018-05-23T15:55:57.331Z,10.93
2018-05-23T15:58:26.205Z,12.70
2018-05-23T16:00:54.757Z,11.17
2018-05-23T16:03:22.963Z,7.03
2018-05-23T16:05:51.496Z,7.40
2018-05-23T16:08:20.589Z,7.70
2018-05-23T16:10:49.160Z,7.53
2018-05-23T16:13:17.452Z,7.90
2018-05-23T16:15:45.592Z,7.97
2018-05-23T16:18:14.582Z,7.17
2018-05-23T16:20:44.385Z,7.53
2018-05-23T16:23:13.317Z,8.70
2018-05-23T16:25:41.467Z,7.53
2018-05-23T16:28:10.182Z,7.07
2018-05-23T16:30:42.610Z,7.97
2018-05-23T16:33:10.717Z,18.83
2018-05-23T16:35:39.019Z,16.53
2018-05-23T16:38:07.391Z,9.97
2018-05-23T16:40:35.585Z,8.80
2018-05-23T16:43:04.821Z,5.70
2018-05-23T16:45:39.800Z,6.50
2018-05-23T16:48:08.009Z,7.57
2018-05-23T16:50:37.223Z,17.00
2018-05-23T16:53:05.466Z,6.80
2018-05-23T16:55:33.790Z,5.77
2018-05-23T16:58:04.356Z,6.20
2018-05-23T17:00:33.721Z,5.57
2018-05-23T17:03:02.628Z,7.03
2018-05-23T17:05:30.717Z,5.50
2018-05-23T17:07:59.081Z,5.60
2018-05-23T17:10:27.233Z,6.13
2018-05-23T17:12:55.406Z,5.10
2018-05-23T17:15:23.584Z,5.20
2018-05-23T17:17:52.484Z,5.47
2018-05-23T17:20:21.477Z,5.23
2018-05-23T17:22:52.807Z,5.00
2018-05-23T17:25:22.108Z,5.47
2018-05-23T17:27:51.769Z,5.57
2018-05-23T17:30:20.892Z,5.67
2018-05-23T17:32:49.168Z,4.60
2018-05-23T17:35:17.244Z,4.80
2018-05-23T17:37:45.332Z,9.87
2018-05-23T17:40:15.282Z,15.10
2018-05-23T17:42:44.112Z,6.10
2018-05-23T17:45:12.319Z,6.27
2018-05-23T17:47:40.596Z,8.20
2018-05-23T17:50:09.105Z,8.43
2018-05-23T17:52:37.244Z,5.30
2018-05-23T17:55:06.445Z,7.63
2018-05-23T17:57:35.662Z,7.90
2018-05-23T18:00:07.407Z,8.20
2018-05-23T18:02:38.323Z,4.53
2018-05-23T18:05:06.657Z,4.37
2018-05-23T18:07:34.788Z,3.87
2018-05-23T18:10:02.970Z,3.30
2018-05-23T18:12:31.983Z,3.77
2018-05-23T18:15:01.148Z,4.10
2018-05-23T18:17:29.272Z,3.60
2018-05-23T18:19:58.337Z,4.37
2018-05-23T18:22:27.266Z,3.60
2018-05-23T18:24:58.984Z,19.50
2018-05-23T18:27:27.360Z,15.60
2018-05-23T18:29:56.258Z,6.37
2018-05-23T18:32:25.209Z,4.30
2018-05-23T18:34:54.550Z,20.83
2018-05-23T18:37:24.026Z,15.80
2018-05-23T18:39:52.280Z,8.93
2018-05-23T18:42:20.467Z,4.40
2018-05-23T18:44:49.483Z,3.73
2018-05-23T18:47:19.399Z,12.00
2018-05-23T18:49:50.070Z,6.43
2018-05-23T18:52:18.191Z,10.67
2018-05-23T18:54:47.634Z,12.50
2018-05-23T18:57:16.933Z,4.50
2018-05-23T18:59:44.971Z,22.07
2018-05-23T19:02:13.201Z,15.47
2018-05-23T19:04:42.351Z,7.83
2018-05-23T19:07:11.638Z,5.10
2018-05-23T19:09:42.048Z,3.90
2018-05-23T19:12:11.084Z,3.70
2018-05-23T19:14:39.237Z,4.37
2018-05-23T19:17:08.374Z,11.50
2018-05-23T19:19:38.779Z,22.93
2018-05-23T19:22:06.990Z,48.57
2018-05-23T19:24:35.101Z,11.50
2018-05-23T19:27:04.039Z,5.50
2018-05-23T19:29:32.201Z,6.13
2018-05-23T19:32:00.489Z,8.97
2018-05-23T19:34:28.609Z,23.43
2018-05-23T19:36:56.690Z,4.23
2018-05-23T19:39:25.170Z,3.80
2018-05-23T19:41:53.589Z,4.87
2018-05-23T19:44:23.114Z,14.77
2018-05-23T19:46:51.278Z,13.20
2018-05-23T19:49:21.197Z,8.20
2018-05-23T19:51:50.182Z,13.20
2018-05-23T19:54:19.292Z,19.47
2018-05-23T19:56:47.511Z,4.87
2018-05-23T19:59:17.380Z,3.40
2018-05-23T20:01:46.542Z,31.40
2018-05-23T20:04:15.438Z,8.20
2018-05-23T20:06:44.336Z,11.80
2018-05-23T20:09:14.295Z,4.00
2018-05-23T20:11:42.405Z,4.80
2018-05-23T20:14:10.587Z,3.53
2018-05-23T20:16:38.832Z,3.30
2018-05-23T20:19:07.136Z,3.43
2018-05-23T20:21:35.463Z,3.53
2018-05-23T20:24:04.741Z,3.13
2018-05-23T20:26:32.895Z,3.03
2018-05-23T20:29:01.067Z,8.37
2018-05-23T20:31:29.308Z,22.60
2018-05-23T20:33:57.776Z,7.50
2018-05-23T20:36:26.023Z,8.40
2018-05-23T20:38:55.989Z,4.30
2018-05-23T20:41:24.661Z,31.50
2018-05-23T20:43:53.137Z,29.53
2018-05-23T20:46:24.761Z,6.03
2018-05-23T20:48:54.523Z,10.97
2018-05-23T20:51:22.872Z,5.73
2018-05-23T20:53:52.025Z,4.30
2018-05-23T20:56:20.452Z,11.60
2018-05-23T20:58:50.505Z,4.07
2018-05-23T21:01:18.593Z,9.20
2018-05-23T21:03:47.468Z,10.60
2018-05-23T21:06:15.672Z,3.93
2018-05-23T21:08:44.973Z,3.67
2018-05-23T21:11:14.263Z,8.77
2018-05-23T21:13:47.283Z,15.50
2018-05-23T21:16:17.101Z,4.70
2018-05-23T21:18:50.030Z,7.20
2018-05-23T21:21:18.975Z,12.03
2018-05-23T21:23:47.144Z,29.67
2018-05-23T21:26:17.287Z,4.83
2018-05-23T21:28:45.547Z,13.30
2018-05-23T21:31:14.064Z,14.97
2018-05-23T21:33:42.562Z,9.70
2018-05-23T21:36:11.956Z,5.00
2018-05-23T21:38:40.118Z,3.33
2018-05-23T21:41:09.074Z,3.50
2018-05-23T21:43:37.366Z,3.80
2018-05-23T21:46:05.465Z,3.80
2018-05-23T21:48:33.946Z,3.93
2018-05-23T21:51:02.103Z,3.33
2018-05-23T21:53:30.388Z,24.67
2018-05-23T21:55:58.509Z,8.03
2018-05-23T21:58:27.356Z,4.27
2018-05-23T22:00:55.467Z,3.77
2018-05-23T22:03:25.360Z,3.50
2018-05-23T22:05:53.427Z,3.67
2018-05-23T22:08:21.514Z,3.00
2018-05-23T22:10:49.648Z,3.17
2018-05-23T22:13:17.757Z,3.47
2018-05-23T22:15:45.858Z,3.60
2018-05-23T22:18:13.967Z,2.97
2018-05-23T22:20:42.082Z,3.70
2018-05-23T22:23:10.919Z,3.33
2018-05-23T22:25:39.002Z,3.37
2018-05-23T22:28:07.091Z,3.53
2018-05-23T22:30:35.169Z,3.13
2018-05-23T22:33:03.269Z,3.10
2018-05-23T22:35:31.369Z,3.80
2018-05-23T22:37:59.669Z,3.40
2018-05-23T22:40:27.909Z,2.97
2018-05-23T22:42:56.002Z,3.60
2018-05-23T22:45:24.192Z,3.50
2018-05-23T22:47:52.442Z,3.77
2018-05-23T22:50:21.638Z,3.70
2018-05-23T22:52:49.828Z,3.40
2018-05-23T22:55:18.846Z,3.43
2018-05-23T22:57:46.996Z,3.37
2018-05-23T23:00:22.637Z,3.13
2018-05-23T23:02:50.906Z,3.63
2018-05-23T23:05:19.564Z,3.20
2018-05-23T23:07:49.204Z,3.00
2018-05-23T23:10:17.551Z,3.40
2018-05-23T23:12:47.273Z,3.20
2018-05-23T23:15:15.480Z,3.30
2018-05-23T23:17:43.570Z,3.20
2018-05-23T23:20:12.422Z,3.20
2018-05-23T23:22:40.665Z,3.20
2018-05-23T23:25:08.855Z,3.07
2018-05-23T23:27:37.577Z,3.13
2018-05-23T23:30:05.926Z,3.70
2018-05-23T23:32:34.741Z,3.00
2018-05-23T23:35:04.773Z,3.40
2018-05-23T23:37:32.878Z,3.40
2018-05-23T23:40:01.171Z,3.37
2018-05-23T23:42:32.140Z,3.60
2018-05-23T23:45:00.365Z,4.10
2018-05-23T23:47:28.697Z,3.07
2018-05-23T23:49:56.793Z,3.13
2018-05-23T23:52:25.823Z,3.43
2018-05-23T23:54:54.748Z,3.10
2018-05-23T23:57:23.109Z,3.70
2018-05-23T23:59:51.368Z,3.67
